sensor_id;sensor_type;location;lat;lon;timestamp;P1;durP1;ratioP1;P2;durP2;ratioP2
31206;SDS011;17834;52.992;8.856;2022-12-07T00:00:28;23.23;;;10.50;;
31206;SDS011;17834;52.992;8.856;2022-12-07T00:02:54;23.83;;;9.88;;
31206;SDS011;17834;52.992;8.856;2022-12-07T00:05:20;24.13;;;10.20;;
31206;SDS011;17834;52.992;8.856;2022-12-07T00:07:46;26.55;;;9.95;;
31206;SDS011;17834;52.992;8.856;2022-12-07T00:10:12;23.35;;;9.23;;
31206;SDS011;17834;52.992;8.856;2022-12-07T00:12:38;19.42;;;8.93;;
31206;SDS011;17834;52.992;8.856;2022-12-07T00:15:04;20.52;;;8.80;;
31206;SDS011;17834;52.992;8.856;2022-12-07T00:17:30;21.25;;;7.82;;
31206;SDS011;17834;52.992;8.856;2022-12-07T00:19:56;17.20;;;7.13;;
31206;SDS011;17834;52.992;8.856;2022-12-07T00:22:22;17.88;;;9.25;;
31206;SDS011;17834;52.992;8.856;2022-12-07T00:24:48;17.55;;;7.38;;
31206;SDS011;17834;52.992;8.856;2022-12-07T00:27:14;15.25;;;6.93;;
31206;SDS011;17834;52.992;8.856;2022-12-07T00:29:40;16.83;;;6.85;;
31206;SDS011;17834;52.992;8.856;2022-12-07T00:32:06;15.68;;;6.97;;
31206;SDS011;17834;52.992;8.856;2022-12-07T00:34:32;16.42;;;6.78;;
31206;SDS011;17834;52.992;8.856;2022-12-07T00:36:58;16.27;;;7.03;;
31206;SDS011;17834;52.992;8.856;2022-12-07T00:39:24;13.77;;;6.00;;
31206;SDS011;17834;52.992;8.856;2022-12-07T00:41:50;14.45;;;6.20;;
31206;SDS011;17834;52.992;8.856;2022-12-07T00:44:16;15.98;;;6.60;;
31206;SDS011;17834;52.992;8.856;2022-12-07T00:46:42;14.98;;;6.50;;
31206;SDS011;17834;52.992;8.856;2022-12-07T00:49:10;15.02;;;6.25;;
31206;SDS011;17834;52.992;8.856;2022-12-07T00:51:36;16.38;;;6.13;;
31206;SDS011;17834;52.992;8.856;2022-12-07T00:54:02;13.68;;;6.40;;
31206;SDS011;17834;52.992;8.856;2022-12-07T00:56:28;17.42;;;6.55;;
31206;SDS011;17834;52.992;8.856;2022-12-07T00:58:55;16.80;;;6.30;;
31206;SDS011;17834;52.992;8.856;2022-12-07T01:01:21;14.00;;;6.75;;
31206;SDS011;17834;52.992;8.856;2022-12-07T01:03:47;20.48;;;7.05;;
31206;SDS011;17834;52.992;8.856;2022-12-07T01:06:15;16.30;;;6.22;;
31206;SDS011;17834;52.992;8.856;2022-12-07T01:08:41;20.13;;;6.57;;
31206;SDS011;17834;52.992;8.856;2022-12-07T01:11:09;19.48;;;7.35;;
31206;SDS011;17834;52.992;8.856;2022-12-07T01:13:35;17.67;;;7.18;;
31206;SDS011;17834;52.992;8.856;2022-12-07T01:16:02;13.05;;;5.97;;
31206;SDS011;17834;52.992;8.856;2022-12-07T01:18:29;13.57;;;5.90;;
31206;SDS011;17834;52.992;8.856;2022-12-07T01:20:59;16.95;;;6.50;;
31206;SDS011;17834;52.992;8.856;2022-12-07T01:23:25;17.33;;;6.80;;
31206;SDS011;17834;52.992;8.856;2022-12-07T01:25:55;13.70;;;5.38;;
31206;SDS011;17834;52.992;8.856;2022-12-07T01:28:22;16.23;;;5.85;;
31206;SDS011;17834;52.992;8.856;2022-12-07T01:31:04;10.65;;;5.35;;
31206;SDS011;17834;52.992;8.856;2022-12-07T01:33:32;14.25;;;5.90;;
31206;SDS011;17834;52.992;8.856;2022-12-07T01:36:15;11.77;;;4.60;;
31206;SDS011;17834;52.992;8.856;2022-12-07T01:38:41;11.68;;;5.85;;
31206;SDS011;17834;52.992;8.856;2022-12-07T01:41:07;16.30;;;5.55;;
31206;SDS011;17834;52.992;8.856;2022-12-07T01:43:34;13.55;;;5.15;;
31206;SDS011;17834;52.992;8.856;2022-12-07T01:46:00;12.85;;;4.68;;
31206;SDS011;17834;52.992;8.856;2022-12-07T01:50:56;11.35;;;4.90;;
31206;SDS011;17834;52.992;8.856;2022-12-07T01:53:26;18.05;;;5.80;;
31206;SDS011;17834;52.992;8.856;2022-12-07T01:55:54;7.35;;;3.78;;
31206;SDS011;17834;52.992;8.856;2022-12-07T01:58:21;11.60;;;4.40;;
31206;SDS011;17834;52.992;8.856;2022-12-07T02:00:47;16.63;;;5.32;;
31206;SDS011;17834;52.992;8.856;2022-12-07T02:03:18;10.10;;;3.85;;
31206;SDS011;17834;52.992;8.856;2022-12-07T02:05:45;12.90;;;4.28;;
31206;SDS011;17834;52.992;8.856;2022-12-07T02:08:12;15.65;;;5.90;;
31206;SDS011;17834;52.992;8.856;2022-12-07T02:10:38;12.60;;;5.18;;
31206;SDS011;17834;52.992;8.856;2022-12-07T02:13:21;11.00;;;4.78;;
31206;SDS011;17834;52.992;8.856;2022-12-07T02:21:27;21.20;;;5.40;;
31206;SDS011;17834;52.992;8.856;2022-12-07T02:26:44;11.35;;;4.43;;
31206;SDS011;17834;52.992;8.856;2022-12-07T02:29:32;10.88;;;4.93;;
31206;SDS011;17834;52.992;8.856;2022-12-07T02:32:03;10.95;;;5.45;;
31206;SDS011;17834;52.992;8.856;2022-12-07T02:36:57;12.05;;;5.35;;
31206;SDS011;17834;52.992;8.856;2022-12-07T02:42:32;11.55;;;4.65;;
31206;SDS011;17834;52.992;8.856;2022-12-07T02:44:59;15.63;;;5.38;;
31206;SDS011;17834;52.992;8.856;2022-12-07T02:47:26;12.95;;;5.45;;
31206;SDS011;17834;52.992;8.856;2022-12-07T02:49:53;14.73;;;4.68;;
31206;SDS011;17834;52.992;8.856;2022-12-07T02:52:19;14.60;;;5.43;;
31206;SDS011;17834;52.992;8.856;2022-12-07T02:54:45;9.68;;;4.90;;
31206;SDS011;17834;52.992;8.856;2022-12-07T03:02:41;9.40;;;4.70;;
31206;SDS011;17834;52.992;8.856;2022-12-07T03:10:35;10.50;;;4.32;;
31206;SDS011;17834;52.992;8.856;2022-12-07T03:13:17;9.45;;;3.97;;
31206;SDS011;17834;52.992;8.856;2022-12-07T03:15:55;9.13;;;3.80;;
31206;SDS011;17834;52.992;8.856;2022-12-07T03:18:24;6.35;;;3.00;;
31206;SDS011;17834;52.992;8.856;2022-12-07T03:20:52;7.95;;;3.53;;
31206;SDS011;17834;52.992;8.856;2022-12-07T03:23:19;8.70;;;3.65;;
31206;SDS011;17834;52.992;8.856;2022-12-07T03:25:47;9.00;;;3.13;;
31206;SDS011;17834;52.992;8.856;2022-12-07T03:28:16;13.50;;;3.28;;
31206;SDS011;17834;52.992;8.856;2022-12-07T03:30:48;7.88;;;2.97;;
31206;SDS011;17834;52.992;8.856;2022-12-07T03:33:20;6.95;;;2.53;;
31206;SDS011;17834;52.992;8.856;2022-12-07T03:35:52;8.30;;;3.08;;
31206;SDS011;17834;52.992;8.856;2022-12-07T03:38:21;6.57;;;2.38;;
31206;SDS011;17834;52.992;8.856;2022-12-07T03:40:50;6.88;;;2.17;;
31206;SDS011;17834;52.992;8.856;2022-12-07T03:43:20;4.28;;;1.90;;
31206;SDS011;17834;52.992;8.856;2022-12-07T03:48:33;4.97;;;1.60;;
31206;SDS011;17834;52.992;8.856;2022-12-07T03:51:02;7.03;;;2.28;;
31206;SDS011;17834;52.992;8.856;2022-12-07T03:53:43;11.90;;;2.83;;
31206;SDS011;17834;52.992;8.856;2022-12-07T03:56:12;8.55;;;3.10;;
31206;SDS011;17834;52.992;8.856;2022-12-07T03:58:38;7.75;;;3.17;;
31206;SDS011;17834;52.992;8.856;2022-12-07T04:01:05;7.88;;;3.38;;
31206;SDS011;17834;52.992;8.856;2022-12-07T04:03:31;9.25;;;3.88;;
31206;SDS011;17834;52.992;8.856;2022-12-07T04:05:57;12.95;;;4.75;;
31206;SDS011;17834;52.992;8.856;2022-12-07T04:08:23;10.77;;;4.32;;
31206;SDS011;17834;52.992;8.856;2022-12-07T04:10:49;11.13;;;4.45;;
31206;SDS011;17834;52.992;8.856;2022-12-07T04:13:15;13.27;;;4.72;;
31206;SDS011;17834;52.992;8.856;2022-12-07T04:15:41;13.52;;;4.45;;
31206;SDS011;17834;52.992;8.856;2022-12-07T04:18:07;15.00;;;5.20;;
31206;SDS011;17834;52.992;8.856;2022-12-07T04:20:33;12.10;;;4.13;;
31206;SDS011;17834;52.992;8.856;2022-12-07T04:22:59;16.02;;;5.38;;
31206;SDS011;17834;52.992;8.856;2022-12-07T04:25:25;11.05;;;4.97;;
31206;SDS011;17834;52.992;8.856;2022-12-07T04:27:51;13.35;;;5.03;;
31206;SDS011;17834;52.992;8.856;2022-12-07T04:30:18;15.35;;;5.18;;
31206;SDS011;17834;52.992;8.856;2022-12-07T04:32:44;12.13;;;4.43;;
31206;SDS011;17834;52.992;8.856;2022-12-07T04:35:10;14.13;;;4.95;;
31206;SDS011;17834;52.992;8.856;2022-12-07T04:37:36;11.07;;;5.38;;
31206;SDS011;17834;52.992;8.856;2022-12-07T04:40:05;13.10;;;5.63;;
31206;SDS011;17834;52.992;8.856;2022-12-07T04:42:32;15.05;;;5.32;;
31206;SDS011;17834;52.992;8.856;2022-12-07T04:44:58;10.52;;;4.57;;
31206;SDS011;17834;52.992;8.856;2022-12-07T04:47:24;8.25;;;4.43;;
31206;SDS011;17834;52.992;8.856;2022-12-07T04:49:50;14.35;;;4.75;;
31206;SDS011;17834;52.992;8.856;2022-12-07T04:52:16;12.57;;;5.10;;
31206;SDS011;17834;52.992;8.856;2022-12-07T04:54:41;9.88;;;4.45;;
31206;SDS011;17834;52.992;8.856;2022-12-07T04:57:07;14.43;;;4.68;;
31206;SDS011;17834;52.992;8.856;2022-12-07T04:59:33;11.45;;;4.25;;
31206;SDS011;17834;52.992;8.856;2022-12-07T05:01:59;11.65;;;4.00;;
31206;SDS011;17834;52.992;8.856;2022-12-07T05:04:25;11.98;;;5.03;;
31206;SDS011;17834;52.992;8.856;2022-12-07T05:06:51;12.52;;;4.00;;
31206;SDS011;17834;52.992;8.856;2022-12-07T05:09:17;8.90;;;3.53;;
31206;SDS011;17834;52.992;8.856;2022-12-07T05:11:43;9.63;;;3.58;;
31206;SDS011;17834;52.992;8.856;2022-12-07T05:14:11;7.00;;;4.15;;
31206;SDS011;17834;52.992;8.856;2022-12-07T05:16:37;11.52;;;4.28;;
31206;SDS011;17834;52.992;8.856;2022-12-07T05:19:03;12.93;;;3.80;;
31206;SDS011;17834;52.992;8.856;2022-12-07T05:21:29;9.15;;;3.85;;
31206;SDS011;17834;52.992;8.856;2022-12-07T05:23:55;8.30;;;3.72;;
31206;SDS011;17834;52.992;8.856;2022-12-07T05:26:21;12.07;;;3.60;;
31206;SDS011;17834;52.992;8.856;2022-12-07T05:28:51;8.77;;;3.97;;
31206;SDS011;17834;52.992;8.856;2022-12-07T05:31:17;8.25;;;3.25;;
31206;SDS011;17834;52.992;8.856;2022-12-07T05:33:43;10.88;;;3.35;;
31206;SDS011;17834;52.992;8.856;2022-12-07T05:36:09;7.72;;;3.00;;
31206;SDS011;17834;52.992;8.856;2022-12-07T05:38:35;6.70;;;2.65;;
31206;SDS011;17834;52.992;8.856;2022-12-07T05:41:05;7.80;;;2.75;;
31206;SDS011;17834;52.992;8.856;2022-12-07T05:43:31;8.60;;;2.90;;
31206;SDS011;17834;52.992;8.856;2022-12-07T05:45:57;21.02;;;3.47;;
31206;SDS011;17834;52.992;8.856;2022-12-07T05:48:23;17.55;;;3.60;;
31206;SDS011;17834;52.992;8.856;2022-12-07T05:50:50;9.80;;;2.28;;
31206;SDS011;17834;52.992;8.856;2022-12-07T05:53:16;6.65;;;2.35;;
31206;SDS011;17834;52.992;8.856;2022-12-07T05:55:42;3.13;;;1.98;;
31206;SDS011;17834;52.992;8.856;2022-12-07T05:58:08;8.70;;;2.25;;
31206;SDS011;17834;52.992;8.856;2022-12-07T06:00:56;7.25;;;2.00;;
31206;SDS011;17834;52.992;8.856;2022-12-07T06:03:22;4.43;;;2.10;;
31206;SDS011;17834;52.992;8.856;2022-12-07T06:05:48;3.20;;;1.70;;
31206;SDS011;17834;52.992;8.856;2022-12-07T06:08:14;5.03;;;2.15;;
31206;SDS011;17834;52.992;8.856;2022-12-07T06:10:40;6.70;;;2.47;;
31206;SDS011;17834;52.992;8.856;2022-12-07T06:13:07;11.00;;;2.15;;
31206;SDS011;17834;52.992;8.856;2022-12-07T06:15:35;6.03;;;2.60;;
31206;SDS011;17834;52.992;8.856;2022-12-07T06:18:01;7.57;;;1.75;;
31206;SDS011;17834;52.992;8.856;2022-12-07T06:20:27;3.72;;;1.77;;
31206;SDS011;17834;52.992;8.856;2022-12-07T06:22:53;3.55;;;2.17;;
31206;SDS011;17834;52.992;8.856;2022-12-07T06:25:19;7.70;;;2.05;;
31206;SDS011;17834;52.992;8.856;2022-12-07T06:27:45;6.28;;;2.28;;
31206;SDS011;17834;52.992;8.856;2022-12-07T06:30:11;8.93;;;2.05;;
31206;SDS011;17834;52.992;8.856;2022-12-07T06:32:37;5.32;;;2.15;;
31206;SDS011;17834;52.992;8.856;2022-12-07T06:35:03;4.45;;;2.22;;
31206;SDS011;17834;52.992;8.856;2022-12-07T06:37:29;7.07;;;2.10;;
31206;SDS011;17834;52.992;8.856;2022-12-07T06:39:55;4.28;;;2.17;;
31206;SDS011;17834;52.992;8.856;2022-12-07T06:42:21;2.95;;;1.90;;
31206;SDS011;17834;52.992;8.856;2022-12-07T06:44:47;6.55;;;2.22;;
31206;SDS011;17834;52.992;8.856;2022-12-07T06:47:14;6.10;;;1.95;;
31206;SDS011;17834;52.992;8.856;2022-12-07T06:49:40;5.97;;;2.00;;
31206;SDS011;17834;52.992;8.856;2022-12-07T06:52:06;7.38;;;2.13;;
31206;SDS011;17834;52.992;8.856;2022-12-07T06:54:31;3.75;;;1.95;;
31206;SDS011;17834;52.992;8.856;2022-12-07T06:56:57;11.90;;;2.60;;
31206;SDS011;17834;52.992;8.856;2022-12-07T06:59:23;4.28;;;1.90;;
31206;SDS011;17834;52.992;8.856;2022-12-07T07:01:49;5.50;;;1.80;;
31206;SDS011;17834;52.992;8.856;2022-12-07T07:04:15;3.40;;;1.40;;
31206;SDS011;17834;52.992;8.856;2022-12-07T07:06:41;4.50;;;2.13;;
31206;SDS011;17834;52.992;8.856;2022-12-07T07:09:07;5.25;;;1.70;;
31206;SDS011;17834;52.992;8.856;2022-12-07T07:11:35;5.22;;;1.65;;
31206;SDS011;17834;52.992;8.856;2022-12-07T07:14:01;8.82;;;1.75;;
31206;SDS011;17834;52.992;8.856;2022-12-07T07:16:28;7.57;;;1.73;;
31206;SDS011;17834;52.992;8.856;2022-12-07T07:18:55;7.20;;;2.13;;
31206;SDS011;17834;52.992;8.856;2022-12-07T07:21:21;4.85;;;1.98;;
31206;SDS011;17834;52.992;8.856;2022-12-07T07:23:47;4.88;;;1.83;;
31206;SDS011;17834;52.992;8.856;2022-12-07T07:26:13;2.97;;;1.70;;
31206;SDS011;17834;52.992;8.856;2022-12-07T07:28:39;4.18;;;1.80;;
31206;SDS011;17834;52.992;8.856;2022-12-07T07:31:05;8.65;;;1.70;;
31206;SDS011;17834;52.992;8.856;2022-12-07T07:33:31;6.13;;;2.13;;
31206;SDS011;17834;52.992;8.856;2022-12-07T07:35:57;2.80;;;1.40;;
31206;SDS011;17834;52.992;8.856;2022-12-07T07:38:23;5.40;;;2.28;;
31206;SDS011;17834;52.992;8.856;2022-12-07T07:40:49;6.53;;;2.53;;
31206;SDS011;17834;52.992;8.856;2022-12-07T07:43:15;3.65;;;2.00;;
31206;SDS011;17834;52.992;8.856;2022-12-07T07:45:41;8.30;;;2.28;;
31206;SDS011;17834;52.992;8.856;2022-12-07T07:48:07;2.40;;;1.45;;
31206;SDS011;17834;52.992;8.856;2022-12-07T07:50:33;2.13;;;1.40;;
31206;SDS011;17834;52.992;8.856;2022-12-07T07:52:59;8.88;;;1.70;;
31206;SDS011;17834;52.992;8.856;2022-12-07T07:55:25;5.85;;;1.40;;
31206;SDS011;17834;52.992;8.856;2022-12-07T07:57:51;5.05;;;1.80;;
31206;SDS011;17834;52.992;8.856;2022-12-07T08:00:17;4.50;;;1.70;;
31206;SDS011;17834;52.992;8.856;2022-12-07T08:02:43;5.18;;;1.85;;
31206;SDS011;17834;52.992;8.856;2022-12-07T08:05:12;1.92;;;1.52;;
31206;SDS011;17834;52.992;8.856;2022-12-07T08:07:39;2.92;;;1.58;;
31206;SDS011;17834;52.992;8.856;2022-12-07T08:10:05;5.25;;;1.50;;
31206;SDS011;17834;52.992;8.856;2022-12-07T08:12:34;3.55;;;1.77;;
31206;SDS011;17834;52.992;8.856;2022-12-07T08:15:01;4.18;;;1.50;;
31206;SDS011;17834;52.992;8.856;2022-12-07T08:17:26;7.22;;;2.10;;
31206;SDS011;17834;52.992;8.856;2022-12-07T08:19:52;5.38;;;1.80;;
31206;SDS011;17834;52.992;8.856;2022-12-07T08:22:18;2.67;;;1.40;;
31206;SDS011;17834;52.992;8.856;2022-12-07T08:24:44;5.45;;;1.70;;
31206;SDS011;17834;52.992;8.856;2022-12-07T08:27:10;3.72;;;1.55;;
31206;SDS011;17834;52.992;8.856;2022-12-07T08:29:36;2.28;;;1.52;;
31206;SDS011;17834;52.992;8.856;2022-12-07T08:32:02;5.25;;;2.28;;
31206;SDS011;17834;52.992;8.856;2022-12-07T08:34:28;4.30;;;1.60;;
31206;SDS011;17834;52.992;8.856;2022-12-07T08:36:54;8.73;;;2.05;;
31206;SDS011;17834;52.992;8.856;2022-12-07T08:39:20;4.05;;;1.83;;
31206;SDS011;17834;52.992;8.856;2022-12-07T08:41:46;5.43;;;1.77;;
31206;SDS011;17834;52.992;8.856;2022-12-07T08:44:12;7.05;;;1.90;;
31206;SDS011;17834;52.992;8.856;2022-12-07T08:46:39;2.58;;;1.77;;
31206;SDS011;17834;52.992;8.856;2022-12-07T08:49:11;6.07;;;1.80;;
31206;SDS011;17834;52.992;8.856;2022-12-07T08:51:39;5.10;;;1.83;;
31206;SDS011;17834;52.992;8.856;2022-12-07T08:54:08;3.35;;;1.35;;
31206;SDS011;17834;52.992;8.856;2022-12-07T08:56:34;4.15;;;1.60;;
31206;SDS011;17834;52.992;8.856;2022-12-07T08:59:01;2.25;;;1.40;;
31206;SDS011;17834;52.992;8.856;2022-12-07T09:01:27;6.15;;;1.50;;
31206;SDS011;17834;52.992;8.856;2022-12-07T09:03:53;6.10;;;1.15;;
31206;SDS011;17834;52.992;8.856;2022-12-07T09:06:20;6.82;;;1.50;;
31206;SDS011;17834;52.992;8.856;2022-12-07T09:08:46;6.63;;;1.40;;
31206;SDS011;17834;52.992;8.856;2022-12-07T09:11:13;5.63;;;1.58;;
31206;SDS011;17834;52.992;8.856;2022-12-07T09:13:39;4.35;;;1.38;;
31206;SDS011;17834;52.992;8.856;2022-12-07T09:16:05;3.05;;;1.33;;
31206;SDS011;17834;52.992;8.856;2022-12-07T09:18:31;3.90;;;1.23;;
31206;SDS011;17834;52.992;8.856;2022-12-07T09:20:57;4.72;;;1.55;;
31206;SDS011;17834;52.992;8.856;2022-12-07T09:23:23;5.95;;;1.80;;
31206;SDS011;17834;52.992;8.856;2022-12-07T09:25:49;2.45;;;1.30;;
31206;SDS011;17834;52.992;8.856;2022-12-07T09:28:15;3.65;;;1.48;;
31206;SDS011;17834;52.992;8.856;2022-12-07T09:30:48;5.28;;;1.85;;
31206;SDS011;17834;52.992;8.856;2022-12-07T09:33:14;5.65;;;1.60;;
31206;SDS011;17834;52.992;8.856;2022-12-07T09:35:44;7.00;;;2.08;;
31206;SDS011;17834;52.992;8.856;2022-12-07T09:38:10;5.00;;;1.83;;
31206;SDS011;17834;52.992;8.856;2022-12-07T09:40:36;7.65;;;1.70;;
31206;SDS011;17834;52.992;8.856;2022-12-07T09:43:02;4.65;;;1.73;;
31206;SDS011;17834;52.992;8.856;2022-12-07T09:45:33;7.38;;;2.15;;
31206;SDS011;17834;52.992;8.856;2022-12-07T09:48:00;10.50;;;1.95;;
31206;SDS011;17834;52.992;8.856;2022-12-07T09:50:27;5.45;;;2.03;;
31206;SDS011;17834;52.992;8.856;2022-12-07T09:52:54;6.63;;;3.47;;
31206;SDS011;17834;52.992;8.856;2022-12-07T09:55:26;4.15;;;2.08;;
31206;SDS011;17834;52.992;8.856;2022-12-07T09:57:53;3.85;;;2.03;;
31206;SDS011;17834;52.992;8.856;2022-12-07T10:00:20;6.80;;;1.83;;
31206;SDS011;17834;52.992;8.856;2022-12-07T10:03:05;7.55;;;2.63;;
31206;SDS011;17834;52.992;8.856;2022-12-07T10:05:35;4.55;;;1.80;;
31206;SDS011;17834;52.992;8.856;2022-12-07T10:08:02;3.92;;;2.17;;
31206;SDS011;17834;52.992;8.856;2022-12-07T10:10:32;6.68;;;2.13;;
31206;SDS011;17834;52.992;8.856;2022-12-07T10:13:00;8.00;;;2.13;;
31206;SDS011;17834;52.992;8.856;2022-12-07T10:21:03;3.72;;;2.17;;
31206;SDS011;17834;52.992;8.856;2022-12-07T10:23:30;6.65;;;2.00;;
31206;SDS011;17834;52.992;8.856;2022-12-07T10:25:56;6.75;;;1.83;;
31206;SDS011;17834;52.992;8.856;2022-12-07T10:28:22;5.32;;;1.95;;
31206;SDS011;17834;52.992;8.856;2022-12-07T10:30:50;9.20;;;1.60;;
31206;SDS011;17834;52.992;8.856;2022-12-07T10:35:57;10.98;;;2.25;;
31206;SDS011;17834;52.992;8.856;2022-12-07T10:38:24;4.30;;;1.95;;
31206;SDS011;17834;52.992;8.856;2022-12-07T10:41:02;3.63;;;2.13;;
31206;SDS011;17834;52.992;8.856;2022-12-07T10:43:28;7.38;;;2.20;;
31206;SDS011;17834;52.992;8.856;2022-12-07T10:46:13;3.97;;;1.67;;
31206;SDS011;17834;52.992;8.856;2022-12-07T10:53:59;4.88;;;1.60;;
31206;SDS011;17834;52.992;8.856;2022-12-07T10:56:45;5.68;;;1.60;;
31206;SDS011;17834;52.992;8.856;2022-12-07T11:01:45;4.15;;;1.70;;
31206;SDS011;17834;52.992;8.856;2022-12-07T11:07:02;5.97;;;1.73;;
31206;SDS011;17834;52.992;8.856;2022-12-07T11:09:38;6.22;;;1.75;;
31206;SDS011;17834;52.992;8.856;2022-12-07T11:15:04;4.13;;;1.45;;
31206;SDS011;17834;52.992;8.856;2022-12-07T11:17:40;2.10;;;1.48;;
31206;SDS011;17834;52.992;8.856;2022-12-07T11:20:29;4.18;;;1.40;;
31206;SDS011;17834;52.992;8.856;2022-12-07T11:23:03;4.07;;;1.80;;
31206;SDS011;17834;52.992;8.856;2022-12-07T11:25:32;4.85;;;1.55;;
31206;SDS011;17834;52.992;8.856;2022-12-07T11:33:39;6.93;;;1.42;;
31206;SDS011;17834;52.992;8.856;2022-12-07T11:38:37;4.22;;;1.42;;
31206;SDS011;17834;52.992;8.856;2022-12-07T11:41:04;4.35;;;1.25;;
31206;SDS011;17834;52.992;8.856;2022-12-07T11:44:05;6.70;;;1.75;;
31206;SDS011;17834;52.992;8.856;2022-12-07T11:46:29;7.80;;;2.05;;
31206;SDS011;17834;52.992;8.856;2022-12-07T11:49:08;4.18;;;1.90;;
31206;SDS011;17834;52.992;8.856;2022-12-07T11:51:36;2.30;;;1.23;;
31206;SDS011;17834;52.992;8.856;2022-12-07T11:54:20;6.80;;;1.50;;
31206;SDS011;17834;52.992;8.856;2022-12-07T11:56:49;2.47;;;1.30;;
31206;SDS011;17834;52.992;8.856;2022-12-07T11:59:18;5.82;;;1.65;;
31206;SDS011;17834;52.992;8.856;2022-12-07T12:01:53;4.60;;;1.27;;
31206;SDS011;17834;52.992;8.856;2022-12-07T12:06:47;5.15;;;1.50;;
31206;SDS011;17834;52.992;8.856;2022-12-07T12:12:15;4.32;;;1.30;;
31206;SDS011;17834;52.992;8.856;2022-12-07T12:14:46;6.45;;;1.48;;
31206;SDS011;17834;52.992;8.856;2022-12-07T12:20:00;8.23;;;1.60;;
31206;SDS011;17834;52.992;8.856;2022-12-07T12:22:37;3.55;;;1.15;;
31206;SDS011;17834;52.992;8.856;2022-12-07T12:25:04;4.07;;;1.20;;
31206;SDS011;17834;52.992;8.856;2022-12-07T12:27:32;6.88;;;1.15;;
31206;SDS011;17834;52.992;8.856;2022-12-07T12:30:00;4.28;;;1.08;;
31206;SDS011;17834;52.992;8.856;2022-12-07T12:37:43;3.55;;;1.23;;
31206;SDS011;17834;52.992;8.856;2022-12-07T12:42:48;7.05;;;1.40;;
31206;SDS011;17834;52.992;8.856;2022-12-07T12:45:26;7.68;;;1.42;;
31206;SDS011;17834;52.992;8.856;2022-12-07T12:47:59;2.65;;;0.90;;
31206;SDS011;17834;52.992;8.856;2022-12-07T12:50:27;6.35;;;1.20;;
31206;SDS011;17834;52.992;8.856;2022-12-07T12:52:54;5.35;;;1.05;;
31206;SDS011;17834;52.992;8.856;2022-12-07T12:58:22;4.93;;;1.27;;
31206;SDS011;17834;52.992;8.856;2022-12-07T13:03:38;5.55;;;1.45;;
31206;SDS011;17834;52.992;8.856;2022-12-07T13:08:49;7.63;;;1.80;;
31206;SDS011;17834;52.992;8.856;2022-12-07T13:11:17;4.57;;;1.33;;
31206;SDS011;17834;52.992;8.856;2022-12-07T13:13:43;14.80;;;1.60;;
31206;SDS011;17834;52.992;8.856;2022-12-07T13:18:36;4.60;;;1.30;;
31206;SDS011;17834;52.992;8.856;2022-12-07T13:26:02;4.07;;;1.30;;
31206;SDS011;17834;52.992;8.856;2022-12-07T13:28:35;6.05;;;1.23;;
31206;SDS011;17834;52.992;8.856;2022-12-07T13:31:14;2.13;;;1.10;;
31206;SDS011;17834;52.992;8.856;2022-12-07T13:33:44;2.03;;;1.10;;
31206;SDS011;17834;52.992;8.856;2022-12-07T13:36:14;3.55;;;1.15;;
31206;SDS011;17834;52.992;8.856;2022-12-07T13:38:48;3.55;;;1.00;;
31206;SDS011;17834;52.992;8.856;2022-12-07T13:41:16;8.80;;;1.50;;
31206;SDS011;17834;52.992;8.856;2022-12-07T13:43:43;2.33;;;1.27;;
31206;SDS011;17834;52.992;8.856;2022-12-07T13:46:09;5.10;;;1.33;;
31206;SDS011;17834;52.992;8.856;2022-12-07T13:48:44;4.10;;;1.20;;
31206;SDS011;17834;52.992;8.856;2022-12-07T13:51:16;5.22;;;1.80;;
31206;SDS011;17834;52.992;8.856;2022-12-07T13:53:46;5.82;;;1.45;;
31206;SDS011;17834;52.992;8.856;2022-12-07T13:56:13;4.82;;;1.45;;
31206;SDS011;17834;52.992;8.856;2022-12-07T13:58:40;5.22;;;1.77;;
31206;SDS011;17834;52.992;8.856;2022-12-07T14:01:07;6.65;;;1.85;;
31206;SDS011;17834;52.992;8.856;2022-12-07T14:03:33;4.47;;;1.23;;
31206;SDS011;17834;52.992;8.856;2022-12-07T14:06:06;7.15;;;1.00;;
31206;SDS011;17834;52.992;8.856;2022-12-07T14:08:32;5.68;;;1.02;;
31206;SDS011;17834;52.992;8.856;2022-12-07T14:10:58;3.20;;;0.98;;
31206;SDS011;17834;52.992;8.856;2022-12-07T14:13:38;3.08;;;1.20;;
31206;SDS011;17834;52.992;8.856;2022-12-07T14:16:17;7.20;;;1.45;;
31206;SDS011;17834;52.992;8.856;2022-12-07T14:18:43;5.13;;;1.45;;
31206;SDS011;17834;52.992;8.856;2022-12-07T14:23:36;3.13;;;0.90;;
31206;SDS011;17834;52.992;8.856;2022-12-07T14:26:19;2.63;;;1.33;;
31206;SDS011;17834;52.992;8.856;2022-12-07T14:28:46;2.30;;;1.30;;
31206;SDS011;17834;52.992;8.856;2022-12-07T14:31:16;4.10;;;1.55;;
31206;SDS011;17834;52.992;8.856;2022-12-07T14:33:43;3.97;;;1.02;;
31206;SDS011;17834;52.992;8.856;2022-12-07T14:36:09;4.85;;;1.30;;
31206;SDS011;17834;52.992;8.856;2022-12-07T14:38:36;2.75;;;1.23;;
31206;SDS011;17834;52.992;8.856;2022-12-07T14:41:03;4.40;;;1.55;;
31206;SDS011;17834;52.992;8.856;2022-12-07T14:43:48;5.55;;;1.30;;
31206;SDS011;17834;52.992;8.856;2022-12-07T14:46:14;1.63;;;1.38;;
31206;SDS011;17834;52.992;8.856;2022-12-07T14:48:40;3.22;;;1.15;;
31206;SDS011;17834;52.992;8.856;2022-12-07T14:51:07;5.03;;;1.20;;
31206;SDS011;17834;52.992;8.856;2022-12-07T14:53:35;3.55;;;1.20;;
31206;SDS011;17834;52.992;8.856;2022-12-07T14:56:02;3.08;;;1.30;;
31206;SDS011;17834;52.992;8.856;2022-12-07T14:58:30;4.00;;;1.40;;
31206;SDS011;17834;52.992;8.856;2022-12-07T15:00:57;1.52;;;1.00;;
31206;SDS011;17834;52.992;8.856;2022-12-07T15:03:23;2.30;;;1.10;;
31206;SDS011;17834;52.992;8.856;2022-12-07T15:05:49;2.50;;;1.30;;
31206;SDS011;17834;52.992;8.856;2022-12-07T15:08:15;4.50;;;1.23;;
31206;SDS011;17834;52.992;8.856;2022-12-07T15:10:41;11.55;;;1.83;;
31206;SDS011;17834;52.992;8.856;2022-12-07T15:13:07;3.80;;;1.30;;
31206;SDS011;17834;52.992;8.856;2022-12-07T15:15:53;3.40;;;1.42;;
31206;SDS011;17834;52.992;8.856;2022-12-07T15:18:20;2.30;;;1.08;;
31206;SDS011;17834;52.992;8.856;2022-12-07T15:20:46;2.17;;;1.30;;
31206;SDS011;17834;52.992;8.856;2022-12-07T15:23:12;2.38;;;1.25;;
31206;SDS011;17834;52.992;8.856;2022-12-07T15:25:42;1.95;;;1.30;;
31206;SDS011;17834;52.992;8.856;2022-12-07T15:28:08;1.88;;;1.20;;
31206;SDS011;17834;52.992;8.856;2022-12-07T15:30:36;1.95;;;1.05;;
31206;SDS011;17834;52.992;8.856;2022-12-07T15:33:02;1.77;;;1.30;;
31206;SDS011;17834;52.992;8.856;2022-12-07T15:35:28;2.88;;;1.25;;
31206;SDS011;17834;52.992;8.856;2022-12-07T15:37:54;5.05;;;1.40;;
31206;SDS011;17834;52.992;8.856;2022-12-07T15:40:20;1.98;;;1.15;;
31206;SDS011;17834;52.992;8.856;2022-12-07T15:42:46;2.00;;;1.20;;
31206;SDS011;17834;52.992;8.856;2022-12-07T15:45:12;2.88;;;1.35;;
31206;SDS011;17834;52.992;8.856;2022-12-07T15:47:40;3.13;;;1.17;;
31206;SDS011;17834;52.992;8.856;2022-12-07T15:50:08;4.80;;;1.27;;
31206;SDS011;17834;52.992;8.856;2022-12-07T15:52:34;2.33;;;1.20;;
31206;SDS011;17834;52.992;8.856;2022-12-07T15:55:01;2.80;;;1.02;;
31206;SDS011;17834;52.992;8.856;2022-12-07T15:57:34;2.13;;;1.10;;
31206;SDS011;17834;52.992;8.856;2022-12-07T16:00:02;2.33;;;1.48;;
31206;SDS011;17834;52.992;8.856;2022-12-07T16:02:28;1.55;;;1.33;;
31206;SDS011;17834;52.992;8.856;2022-12-07T16:04:54;3.63;;;1.40;;
31206;SDS011;17834;52.992;8.856;2022-12-07T16:07:20;2.55;;;0.95;;
31206;SDS011;17834;52.992;8.856;2022-12-07T16:09:46;3.30;;;1.30;;
31206;SDS011;17834;52.992;8.856;2022-12-07T16:12:14;5.93;;;1.30;;
31206;SDS011;17834;52.992;8.856;2022-12-07T16:14:40;2.28;;;1.25;;
31206;SDS011;17834;52.992;8.856;2022-12-07T16:17:07;4.88;;;1.38;;
31206;SDS011;17834;52.992;8.856;2022-12-07T16:19:33;2.88;;;1.17;;
31206;SDS011;17834;52.992;8.856;2022-12-07T16:21:59;2.20;;;1.38;;